sensor_id;sensor_type;location;lat;lon;timestamp;P1;durP1;ratioP1;P2;durP2;ratioP2
73132;SDS011;61320;52.008;4.530;2023-05-10T00:01:46;32.39;;;31.53;;
73132;SDS011;61320;52.008;4.530;2023-05-10T00:04:12;32.05;;;31.30;;
73132;SDS011;61320;52.008;4.530;2023-05-10T00:06:37;33.72;;;32.77;;
73132;SDS011;61320;52.008;4.530;2023-05-10T00:09:03;33.45;;;32.37;;
73132;SDS011;61320;52.008;4.530;2023-05-10T00:11:28;32.97;;;32.51;;
73132;SDS011;61320;52.008;4.530;2023-05-10T00:13:54;32.99;;;32.28;;
73132;SDS011;61320;52.008;4.530;2023-05-10T00:16:20;33.94;;;32.93;;
73132;SDS011;61320;52.008;4.530;2023-05-10T00:18:45;32.64;;;31.65;;
73132;SDS011;61320;52.008;4.530;2023-05-10T00:21:11;32.69;;;31.74;;
73132;SDS011;61320;52.008;4.530;2023-05-10T00:23:36;33.02;;;32.59;;
73132;SDS011;61320;52.008;4.530;2023-05-10T00:26:02;36.61;;;35.63;;
73132;SDS011;61320;52.008;4.530;2023-05-10T00:28:28;36.26;;;35.52;;
73132;SDS011;61320;52.008;4.530;2023-05-10T00:30:54;37.82;;;36.81;;
73132;SDS011;61320;52.008;4.530;2023-05-10T00:33:19;38.30;;;37.57;;
73132;SDS011;61320;52.008;4.530;2023-05-10T00:35:44;38.76;;;37.87;;
73132;SDS011;61320;52.008;4.530;2023-05-10T00:38:10;38.77;;;38.07;;
73132;SDS011;61320;52.008;4.530;2023-05-10T00:40:36;38.00;;;37.30;;
73132;SDS011;61320;52.008;4.530;2023-05-10T00:43:02;40.00;;;39.13;;
73132;SDS011;61320;52.008;4.530;2023-05-10T00:45:28;40.67;;;39.45;;
73132;SDS011;61320;52.008;4.530;2023-05-10T00:47:55;39.23;;;38.26;;
73132;SDS011;61320;52.008;4.530;2023-05-10T00:50:21;37.12;;;36.29;;
73132;SDS011;61320;52.008;4.530;2023-05-10T00:52:48;39.26;;;38.36;;
73132;SDS011;61320;52.008;4.530;2023-05-10T00:55:14;39.83;;;38.95;;
73132;SDS011;61320;52.008;4.530;2023-05-10T00:57:39;39.78;;;38.65;;
73132;SDS011;61320;52.008;4.530;2023-05-10T01:00:06;39.61;;;38.55;;
73132;SDS011;61320;52.008;4.530;2023-05-10T01:02:33;39.39;;;38.30;;
73132;SDS011;61320;52.008;4.530;2023-05-10T01:05:01;41.65;;;40.42;;
73132;SDS011;61320;52.008;4.530;2023-05-10T01:07:28;40.89;;;39.76;;
73132;SDS011;61320;52.008;4.530;2023-05-10T01:09:54;41.57;;;40.44;;
73132;SDS011;61320;52.008;4.530;2023-05-10T01:12:21;42.74;;;41.57;;
73132;SDS011;61320;52.008;4.530;2023-05-10T01:14:47;40.95;;;39.93;;
73132;SDS011;61320;52.008;4.530;2023-05-10T01:17:13;36.48;;;35.36;;
73132;SDS011;61320;52.008;4.530;2023-05-10T01:19:41;37.15;;;35.79;;
73132;SDS011;61320;52.008;4.530;2023-05-10T01:27:23;40.40;;;39.32;;
73132;SDS011;61320;52.008;4.530;2023-05-10T01:35:38;41.37;;;40.12;;
73132;SDS011;61320;52.008;4.530;2023-05-10T01:40:59;42.82;;;41.31;;
73132;SDS011;61320;52.008;4.530;2023-05-10T01:43:33;42.07;;;40.61;;
73132;SDS011;61320;52.008;4.530;2023-05-10T01:46:03;41.70;;;40.28;;
73132;SDS011;61320;52.008;4.530;2023-05-10T01:48:36;41.50;;;40.15;;
73132;SDS011;61320;52.008;4.530;2023-05-10T01:51:11;41.46;;;40.09;;
73132;SDS011;61320;52.008;4.530;2023-05-10T01:53:42;41.17;;;39.77;;
73132;SDS011;61320;52.008;4.530;2023-05-10T01:56:11;40.94;;;39.60;;
73132;SDS011;61320;52.008;4.530;2023-05-10T01:58:39;40.83;;;39.65;;
73132;SDS011;61320;52.008;4.530;2023-05-10T02:01:10;40.30;;;39.35;;
73132;SDS011;61320;52.008;4.530;2023-05-10T02:03:38;39.83;;;38.69;;
73132;SDS011;61320;52.008;4.530;2023-05-10T02:06:07;38.46;;;37.18;;
73132;SDS011;61320;52.008;4.530;2023-05-10T02:08:38;36.49;;;35.31;;
73132;SDS011;61320;52.008;4.530;2023-05-10T02:11:06;34.95;;;34.12;;
73132;SDS011;61320;52.008;4.530;2023-05-10T02:13:33;34.34;;;33.43;;
73132;SDS011;61320;52.008;4.530;2023-05-10T02:16:02;32.91;;;32.09;;
73132;SDS011;61320;52.008;4.530;2023-05-10T02:18:30;30.70;;;30.16;;
73132;SDS011;61320;52.008;4.530;2023-05-10T02:20:59;29.70;;;29.17;;
73132;SDS011;61320;52.008;4.530;2023-05-10T02:23:27;29.67;;;29.26;;
73132;SDS011;61320;52.008;4.530;2023-05-10T02:25:55;31.99;;;31.46;;
73132;SDS011;61320;52.008;4.530;2023-05-10T02:28:23;32.47;;;31.99;;
73132;SDS011;61320;52.008;4.530;2023-05-10T02:30:51;31.42;;;30.89;;
73132;SDS011;61320;52.008;4.530;2023-05-10T02:33:20;32.32;;;31.67;;
73132;SDS011;61320;52.008;4.530;2023-05-10T02:35:47;33.41;;;32.59;;
73132;SDS011;61320;52.008;4.530;2023-05-10T02:38:15;34.03;;;33.28;;
73132;SDS011;61320;52.008;4.530;2023-05-10T02:40:43;34.09;;;33.56;;
73132;SDS011;61320;52.008;4.530;2023-05-10T02:43:12;33.42;;;32.89;;
73132;SDS011;61320;52.008;4.530;2023-05-10T02:45:40;34.69;;;34.06;;
73132;SDS011;61320;52.008;4.530;2023-05-10T02:48:11;34.69;;;34.17;;
73132;SDS011;61320;52.008;4.530;2023-05-10T02:50:37;33.84;;;33.43;;
73132;SDS011;61320;52.008;4.530;2023-05-10T02:53:10;33.56;;;33.12;;
73132;SDS011;61320;52.008;4.530;2023-05-10T02:55:44;34.70;;;34.17;;
73132;SDS011;61320;52.008;4.530;2023-05-10T02:58:15;32.59;;;32.16;;
73132;SDS011;61320;52.008;4.530;2023-05-10T03:00:43;34.91;;;34.17;;
73132;SDS011;61320;52.008;4.530;2023-05-10T03:03:08;35.21;;;34.40;;
73132;SDS011;61320;52.008;4.530;2023-05-10T03:05:34;34.17;;;33.65;;
73132;SDS011;61320;52.008;4.530;2023-05-10T03:07:59;35.22;;;34.33;;
73132;SDS011;61320;52.008;4.530;2023-05-10T03:10:29;34.20;;;33.74;;
73132;SDS011;61320;52.008;4.530;2023-05-10T03:13:03;35.35;;;34.71;;
73132;SDS011;61320;52.008;4.530;2023-05-10T03:15:34;35.63;;;34.90;;
73132;SDS011;61320;52.008;4.530;2023-05-10T03:20:48;38.55;;;38.02;;
73132;SDS011;61320;52.008;4.530;2023-05-10T03:23:21;38.00;;;37.92;;
73132;SDS011;61320;52.008;4.530;2023-05-10T03:26:08;40.21;;;40.02;;
73132;SDS011;61320;52.008;4.530;2023-05-10T03:28:35;38.91;;;38.88;;
73132;SDS011;61320;52.008;4.530;2023-05-10T03:31:02;38.17;;;38.11;;
73132;SDS011;61320;52.008;4.530;2023-05-10T03:33:30;39.73;;;39.68;;
73132;SDS011;61320;52.008;4.530;2023-05-10T03:35:56;38.11;;;37.86;;
73132;SDS011;61320;52.008;4.530;2023-05-10T03:38:22;38.54;;;38.53;;
73132;SDS011;61320;52.008;4.530;2023-05-10T03:40:47;40.02;;;39.97;;
73132;SDS011;61320;52.008;4.530;2023-05-10T03:43:13;40.05;;;39.67;;
73132;SDS011;61320;52.008;4.530;2023-05-10T03:45:38;40.07;;;40.04;;
73132;SDS011;61320;52.008;4.530;2023-05-10T03:48:04;41.56;;;41.27;;
73132;SDS011;61320;52.008;4.530;2023-05-10T03:50:30;40.90;;;40.87;;
73132;SDS011;61320;52.008;4.530;2023-05-10T03:52:56;44.46;;;44.46;;
73132;SDS011;61320;52.008;4.530;2023-05-10T03:55:22;42.13;;;42.13;;
73132;SDS011;61320;52.008;4.530;2023-05-10T03:57:48;43.56;;;43.56;;
73132;SDS011;61320;52.008;4.530;2023-05-10T04:00:14;45.08;;;45.06;;
73132;SDS011;61320;52.008;4.530;2023-05-10T04:02:40;45.90;;;45.64;;
73132;SDS011;61320;52.008;4.530;2023-05-10T04:05:06;46.62;;;46.42;;
73132;SDS011;61320;52.008;4.530;2023-05-10T04:07:32;43.80;;;43.75;;
73132;SDS011;61320;52.008;4.530;2023-05-10T04:09:57;45.26;;;44.93;;
73132;SDS011;61320;52.008;4.530;2023-05-10T04:12:23;43.18;;;43.16;;
73132;SDS011;61320;52.008;4.530;2023-05-10T04:14:48;42.41;;;42.41;;
73132;SDS011;61320;52.008;4.530;2023-05-10T04:17:14;40.58;;;40.46;;
73132;SDS011;61320;52.008;4.530;2023-05-10T04:19:39;39.29;;;39.26;;
73132;SDS011;61320;52.008;4.530;2023-05-10T04:22:05;36.44;;;36.12;;
73132;SDS011;61320;52.008;4.530;2023-05-10T04:24:30;36.59;;;36.30;;
73132;SDS011;61320;52.008;4.530;2023-05-10T04:26:56;37.84;;;37.44;;
73132;SDS011;61320;52.008;4.530;2023-05-10T04:29:21;39.18;;;38.42;;
73132;SDS011;61320;52.008;4.530;2023-05-10T04:31:46;38.55;;;37.72;;
73132;SDS011;61320;52.008;4.530;2023-05-10T04:34:12;36.95;;;36.42;;
73132;SDS011;61320;52.008;4.530;2023-05-10T04:36:37;36.95;;;36.43;;
73132;SDS011;61320;52.008;4.530;2023-05-10T04:39:03;37.77;;;37.13;;
73132;SDS011;61320;52.008;4.530;2023-05-10T04:41:29;39.00;;;38.21;;
73132;SDS011;61320;52.008;4.530;2023-05-10T04:43:54;38.86;;;38.29;;
73132;SDS011;61320;52.008;4.530;2023-05-10T04:46:20;40.21;;;39.17;;
73132;SDS011;61320;52.008;4.530;2023-05-10T04:48:46;40.09;;;39.30;;
73132;SDS011;61320;52.008;4.530;2023-05-10T04:51:11;38.57;;;37.68;;
73132;SDS011;61320;52.008;4.530;2023-05-10T04:53:37;36.06;;;34.91;;
73132;SDS011;61320;52.008;4.530;2023-05-10T04:56:02;34.37;;;33.17;;
73132;SDS011;61320;52.008;4.530;2023-05-10T04:58:28;32.55;;;30.73;;
73132;SDS011;61320;52.008;4.530;2023-05-10T05:00:54;30.13;;;28.50;;
73132;SDS011;61320;52.008;4.530;2023-05-10T05:03:19;23.24;;;22.32;;
73132;SDS011;61320;52.008;4.530;2023-05-10T05:05:45;20.23;;;19.90;;
73132;SDS011;61320;52.008;4.530;2023-05-10T05:08:10;16.75;;;16.56;;
73132;SDS011;61320;52.008;4.530;2023-05-10T05:10:36;13.89;;;13.73;;
73132;SDS011;61320;52.008;4.530;2023-05-10T05:13:01;12.53;;;12.40;;
73132;SDS011;61320;52.008;4.530;2023-05-10T05:15:26;12.60;;;12.52;;
73132;SDS011;61320;52.008;4.530;2023-05-10T05:17:52;12.03;;;11.90;;
73132;SDS011;61320;52.008;4.530;2023-05-10T05:20:18;10.29;;;10.24;;
73132;SDS011;61320;52.008;4.530;2023-05-10T05:22:44;9.63;;;9.63;;
73132;SDS011;61320;52.008;4.530;2023-05-10T05:25:09;9.81;;;9.81;;
73132;SDS011;61320;52.008;4.530;2023-05-10T05:27:36;9.73;;;9.70;;
73132;SDS011;61320;52.008;4.530;2023-05-10T05:30:02;9.64;;;9.58;;
73132;SDS011;61320;52.008;4.530;2023-05-10T05:32:28;9.55;;;9.55;;
73132;SDS011;61320;52.008;4.530;2023-05-10T05:34:53;8.81;;;8.80;;
73132;SDS011;61320;52.008;4.530;2023-05-10T05:37:19;8.43;;;8.42;;
73132;SDS011;61320;52.008;4.530;2023-05-10T05:39:46;7.90;;;7.90;;
73132;SDS011;61320;52.008;4.530;2023-05-10T05:42:12;8.61;;;8.61;;
73132;SDS011;61320;52.008;4.530;2023-05-10T05:44:39;8.12;;;8.11;;
73132;SDS011;61320;52.008;4.530;2023-05-10T05:47:05;7.64;;;7.64;;
73132;SDS011;61320;52.008;4.530;2023-05-10T05:49:31;7.21;;;7.21;;
73132;SDS011;61320;52.008;4.530;2023-05-10T05:52:01;7.31;;;7.31;;
73132;SDS011;61320;52.008;4.530;2023-05-10T05:54:27;7.49;;;7.49;;
73132;SDS011;61320;52.008;4.530;2023-05-10T05:56:54;7.16;;;7.16;;
73132;SDS011;61320;52.008;4.530;2023-05-10T05:59:20;7.26;;;7.26;;
73132;SDS011;61320;52.008;4.530;2023-05-10T06:01:46;7.53;;;7.53;;
73132;SDS011;61320;52.008;4.530;2023-05-10T06:04:12;7.56;;;7.55;;
73132;SDS011;61320;52.008;4.530;2023-05-10T06:06:37;8.06;;;8.06;;
73132;SDS011;61320;52.008;4.530;2023-05-10T06:09:03;8.03;;;8.03;;
73132;SDS011;61320;52.008;4.530;2023-05-10T06:11:28;9.02;;;9.02;;
73132;SDS011;61320;52.008;4.530;2023-05-10T06:13:55;8.50;;;8.50;;
73132;SDS011;61320;52.008;4.530;2023-05-10T06:16:21;8.74;;;8.74;;
73132;SDS011;61320;52.008;4.530;2023-05-10T06:18:46;8.36;;;8.36;;
73132;SDS011;61320;52.008;4.530;2023-05-10T06:21:12;8.73;;;8.73;;
73132;SDS011;61320;52.008;4.530;2023-05-10T06:23:37;8.45;;;8.45;;
73132;SDS011;61320;52.008;4.530;2023-05-10T06:26:02;8.70;;;8.70;;
73132;SDS011;61320;52.008;4.530;2023-05-10T06:28:28;8.92;;;8.92;;
73132;SDS011;61320;52.008;4.530;2023-05-10T06:30:53;8.20;;;8.20;;
73132;SDS011;61320;52.008;4.530;2023-05-10T06:33:19;8.32;;;8.32;;
73132;SDS011;61320;52.008;4.530;2023-05-10T06:35:44;8.05;;;8.05;;
73132;SDS011;61320;52.008;4.530;2023-05-10T06:38:10;7.80;;;7.80;;
73132;SDS011;61320;52.008;4.530;2023-05-10T06:40:35;7.85;;;7.85;;
73132;SDS011;61320;52.008;4.530;2023-05-10T06:43:01;8.03;;;8.03;;
73132;SDS011;61320;52.008;4.530;2023-05-10T06:45:26;8.29;;;8.29;;
73132;SDS011;61320;52.008;4.530;2023-05-10T06:47:52;7.96;;;7.96;;
73132;SDS011;61320;52.008;4.530;2023-05-10T06:50:17;7.40;;;7.38;;
73132;SDS011;61320;52.008;4.530;2023-05-10T06:52:42;6.96;;;6.93;;
73132;SDS011;61320;52.008;4.530;2023-05-10T06:55:08;6.83;;;6.82;;
73132;SDS011;61320;52.008;4.530;2023-05-10T06:57:34;6.82;;;6.82;;
73132;SDS011;61320;52.008;4.530;2023-05-10T07:00:00;6.64;;;6.64;;
73132;SDS011;61320;52.008;4.530;2023-05-10T07:02:26;7.06;;;7.06;;
73132;SDS011;61320;52.008;4.530;2023-05-10T07:04:52;7.16;;;7.15;;
73132;SDS011;61320;52.008;4.530;2023-05-10T07:07:18;7.33;;;7.33;;
73132;SDS011;61320;52.008;4.530;2023-05-10T07:09:43;6.65;;;6.65;;
73132;SDS011;61320;52.008;4.530;2023-05-10T07:12:09;7.24;;;7.24;;
73132;SDS011;61320;52.008;4.530;2023-05-10T07:14:35;7.72;;;7.72;;
73132;SDS011;61320;52.008;4.530;2023-05-10T07:17:00;7.55;;;7.55;;
73132;SDS011;61320;52.008;4.530;2023-05-10T07:19:26;7.51;;;7.51;;
73132;SDS011;61320;52.008;4.530;2023-05-10T07:21:52;8.42;;;8.42;;
73132;SDS011;61320;52.008;4.530;2023-05-10T07:24:17;8.62;;;8.62;;
73132;SDS011;61320;52.008;4.530;2023-05-10T07:26:43;9.11;;;9.11;;
73132;SDS011;61320;52.008;4.530;2023-05-10T07:29:08;8.22;;;8.22;;
73132;SDS011;61320;52.008;4.530;2023-05-10T07:31:35;8.71;;;8.71;;
73132;SDS011;61320;52.008;4.530;2023-05-10T07:34:00;8.74;;;8.74;;
73132;SDS011;61320;52.008;4.530;2023-05-10T07:36:27;8.55;;;8.53;;
73132;SDS011;61320;52.008;4.530;2023-05-10T07:38:52;8.20;;;8.20;;
73132;SDS011;61320;52.008;4.530;2023-05-10T07:41:18;8.78;;;8.78;;
73132;SDS011;61320;52.008;4.530;2023-05-10T07:43:43;8.93;;;8.91;;
73132;SDS011;61320;52.008;4.530;2023-05-10T07:46:09;9.53;;;9.49;;
73132;SDS011;61320;52.008;4.530;2023-05-10T07:48:36;9.96;;;9.85;;
73132;SDS011;61320;52.008;4.530;2023-05-10T07:51:02;8.13;;;8.10;;
73132;SDS011;61320;52.008;4.530;2023-05-10T07:53:27;6.96;;;6.96;;
73132;SDS011;61320;52.008;4.530;2023-05-10T07:55:57;6.93;;;6.93;;
73132;SDS011;61320;52.008;4.530;2023-05-10T07:58:23;6.89;;;6.88;;
73132;SDS011;61320;52.008;4.530;2023-05-10T08:00:49;7.38;;;7.35;;
73132;SDS011;61320;52.008;4.530;2023-05-10T08:03:15;8.31;;;8.26;;
73132;SDS011;61320;52.008;4.530;2023-05-10T08:05:40;9.41;;;9.40;;
73132;SDS011;61320;52.008;4.530;2023-05-10T08:08:06;9.61;;;9.61;;
73132;SDS011;61320;52.008;4.530;2023-05-10T08:10:32;9.11;;;9.08;;
73132;SDS011;61320;52.008;4.530;2023-05-10T08:12:57;9.53;;;9.52;;
73132;SDS011;61320;52.008;4.530;2023-05-10T08:15:23;8.58;;;8.58;;
73132;SDS011;61320;52.008;4.530;2023-05-10T08:17:51;7.67;;;7.66;;
73132;SDS011;61320;52.008;4.530;2023-05-10T08:20:17;7.91;;;7.91;;
73132;SDS011;61320;52.008;4.530;2023-05-10T08:22:44;11.00;;;10.93;;
73132;SDS011;61320;52.008;4.530;2023-05-10T08:25:10;8.60;;;8.59;;
73132;SDS011;61320;52.008;4.530;2023-05-10T08:27:36;7.55;;;7.55;;
73132;SDS011;61320;52.008;4.530;2023-05-10T08:30:01;8.45;;;8.37;;
73132;SDS011;61320;52.008;4.530;2023-05-10T08:32:27;7.94;;;7.91;;
73132;SDS011;61320;52.008;4.530;2023-05-10T08:34:52;8.44;;;8.43;;
73132;SDS011;61320;52.008;4.530;2023-05-10T08:37:18;8.02;;;8.02;;
73132;SDS011;61320;52.008;4.530;2023-05-10T08:39:43;7.49;;;7.49;;
73132;SDS011;61320;52.008;4.530;2023-05-10T08:42:10;7.55;;;7.55;;
73132;SDS011;61320;52.008;4.530;2023-05-10T08:44:41;7.13;;;7.13;;
73132;SDS011;61320;52.008;4.530;2023-05-10T08:47:07;6.82;;;6.82;;
73132;SDS011;61320;52.008;4.530;2023-05-10T08:49:35;7.40;;;7.40;;
73132;SDS011;61320;52.008;4.530;2023-05-10T08:52:05;7.69;;;7.65;;
73132;SDS011;61320;52.008;4.530;2023-05-10T08:54:32;7.26;;;7.25;;
73132;SDS011;61320;52.008;4.530;2023-05-10T08:56:58;7.91;;;7.87;;
73132;SDS011;61320;52.008;4.530;2023-05-10T08:59:24;7.32;;;7.28;;
73132;SDS011;61320;52.008;4.530;2023-05-10T09:01:49;7.25;;;7.25;;
73132;SDS011;61320;52.008;4.530;2023-05-10T09:04:19;6.89;;;6.89;;
73132;SDS011;61320;52.008;4.530;2023-05-10T09:06:45;6.63;;;6.63;;
73132;SDS011;61320;52.008;4.530;2023-05-10T09:09:10;5.71;;;5.71;;
73132;SDS011;61320;52.008;4.530;2023-05-10T09:11:37;6.26;;;6.26;;
73132;SDS011;61320;52.008;4.530;2023-05-10T09:14:03;6.39;;;6.39;;
73132;SDS011;61320;52.008;4.530;2023-05-10T09:16:28;6.92;;;6.92;;
73132;SDS011;61320;52.008;4.530;2023-05-10T09:18:54;6.79;;;6.79;;
73132;SDS011;61320;52.008;4.530;2023-05-10T09:21:19;6.29;;;6.29;;
73132;SDS011;61320;52.008;4.530;2023-05-10T09:23:45;6.33;;;6.33;;
73132;SDS011;61320;52.008;4.530;2023-05-10T09:26:12;9.55;;;9.55;;
73132;SDS011;61320;52.008;4.530;2023-05-10T09:28:51;7.50;;;7.43;;
73132;SDS011;61320;52.008;4.530;2023-05-10T09:31:19;6.30;;;6.30;;
73132;SDS011;61320;52.008;4.530;2023-05-10T09:33:45;6.75;;;6.75;;
73132;SDS011;61320;52.008;4.530;2023-05-10T09:36:11;6.28;;;6.28;;
73132;SDS011;61320;52.008;4.530;2023-05-10T09:38:50;6.23;;;6.23;;
73132;SDS011;61320;52.008;4.530;2023-05-10T09:41:23;7.54;;;7.54;;
73132;SDS011;61320;52.008;4.530;2023-05-10T09:43:55;7.92;;;7.92;;
73132;SDS011;61320;52.008;4.530;2023-05-10T09:46:21;8.10;;;8.10;;
73132;SDS011;61320;52.008;4.530;2023-05-10T09:48:47;8.44;;;8.44;;
73132;SDS011;61320;52.008;4.530;2023-05-10T09:53:45;9.09;;;9.09;;
73132;SDS011;61320;52.008;4.530;2023-05-10T09:56:11;8.58;;;8.58;;
73132;SDS011;61320;52.008;4.530;2023-05-10T09:58:37;8.52;;;8.52;;
73132;SDS011;61320;52.008;4.530;2023-05-10T10:01:10;7.99;;;7.99;;
73132;SDS011;61320;52.008;4.530;2023-05-10T10:03:41;7.32;;;7.32;;
73132;SDS011;61320;52.008;4.530;2023-05-10T10:06:07;6.94;;;6.94;;
73132;SDS011;61320;52.008;4.530;2023-05-10T10:08:33;7.89;;;7.89;;
73132;SDS011;61320;52.008;4.530;2023-05-10T10:11:00;7.30;;;7.30;;
73132;SDS011;61320;52.008;4.530;2023-05-10T10:13:26;7.57;;;7.57;;
73132;SDS011;61320;52.008;4.530;2023-05-10T10:15:52;7.55;;;7.55;;
73132;SDS011;61320;52.008;4.530;2023-05-10T10:18:19;7.76;;;7.76;;
73132;SDS011;61320;52.008;4.530;2023-05-10T10:20:48;5.36;;;5.36;;
73132;SDS011;61320;52.008;4.530;2023-05-10T10:23:14;5.61;;;5.61;;
73132;SDS011;61320;52.008;4.530;2023-05-10T10:25:40;5.62;;;5.62;;
73132;SDS011;61320;52.008;4.530;2023-05-10T10:28:11;5.27;;;5.27;;
73132;SDS011;61320;52.008;4.530;2023-05-10T10:30:59;5.34;;;5.34;;
73132;SDS011;61320;52.008;4.530;2023-05-10T10:33:40;6.00;;;6.00;;
73132;SDS011;61320;52.008;4.530;2023-05-10T10:36:22;7.04;;;7.04;;
73132;SDS011;61320;52.008;4.530;2023-05-10T10:41:55;8.06;;;8.06;;
73132;SDS011;61320;52.008;4.530;2023-05-10T10:49:25;8.56;;;8.56;;
73132;SDS011;61320;52.008;4.530;2023-05-10T10:55:25;8.22;;;8.22;;
73132;SDS011;61320;52.008;4.530;2023-05-10T11:07:54;7.38;;;7.38;;
73132;SDS011;61320;52.008;4.530;2023-05-10T11:10:21;7.01;;;7.01;;
73132;SDS011;61320;52.008;4.530;2023-05-10T11:13:03;7.03;;;7.03;;
73132;SDS011;61320;52.008;4.530;2023-05-10T11:15:37;7.02;;;7.02;;
73132;SDS011;61320;52.008;4.530;2023-05-10T11:18:20;7.45;;;7.45;;
73132;SDS011;61320;52.008;4.530;2023-05-10T11:20:59;7.42;;;7.42;;
73132;SDS011;61320;52.008;4.530;2023-05-10T11:23:31;7.96;;;7.96;;
73132;SDS011;61320;52.008;4.530;2023-05-10T11:26:12;7.91;;;7.91;;
73132;SDS011;61320;52.008;4.530;2023-05-10T11:28:44;7.80;;;7.80;;
73132;SDS011;61320;52.008;4.530;2023-05-10T11:31:14;7.57;;;7.57;;
73132;SDS011;61320;52.008;4.530;2023-05-10T11:33:44;7.99;;;7.99;;
73132;SDS011;61320;52.008;4.530;2023-05-10T11:36:19;7.95;;;7.95;;
73132;SDS011;61320;52.008;4.530;2023-05-10T11:38:50;7.75;;;7.75;;
73132;SDS011;61320;52.008;4.530;2023-05-10T11:41:17;7.91;;;7.91;;
73132;SDS011;61320;52.008;4.530;2023-05-10T11:43:45;8.13;;;8.13;;
73132;SDS011;61320;52.008;4.530;2023-05-10T11:46:14;7.54;;;7.54;;
73132;SDS011;61320;52.008;4.530;2023-05-10T11:48:41;7.81;;;7.81;;
73132;SDS011;61320;52.008;4.530;2023-05-10T11:51:07;6.67;;;6.67;;
73132;SDS011;61320;52.008;4.530;2023-05-10T11:53:34;6.78;;;6.78;;
73132;SDS011;61320;52.008;4.530;2023-05-10T11:56:18;8.24;;;8.24;;
73132;SDS011;61320;52.008;4.530;2023-05-10T11:58:44;7.19;;;7.19;;
73132;SDS011;61320;52.008;4.530;2023-05-10T12:01:10;7.78;;;7.78;;
73132;SDS011;61320;52.008;4.530;2023-05-10T12:03:36;7.77;;;7.77;;
73132;SDS011;61320;52.008;4.530;2023-05-10T12:06:03;7.12;;;7.12;;
73132;SDS011;61320;52.008;4.530;2023-05-10T12:08:29;6.60;;;6.60;;
73132;SDS011;61320;52.008;4.530;2023-05-10T12:11:06;7.23;;;7.23;;
73132;SDS011;61320;52.008;4.530;2023-05-10T12:13:37;6.99;;;6.99;;
73132;SDS011;61320;52.008;4.530;2023-05-10T12:16:12;6.90;;;6.90;;
73132;SDS011;61320;52.008;4.530;2023-05-10T12:18:39;6.39;;;6.39;;
73132;SDS011;61320;52.008;4.530;2023-05-10T12:21:06;6.47;;;6.47;;
73132;SDS011;61320;52.008;4.530;2023-05-10T12:23:31;6.91;;;6.91;;
73132;SDS011;61320;52.008;4.530;2023-05-10T12:26:03;7.77;;;7.77;;
73132;SDS011;61320;52.008;4.530;2023-05-10T12:28:30;8.01;;;8.01;;
73132;SDS011;61320;52.008;4.530;2023-05-10T12:30:57;7.81;;;7.81;;
73132;SDS011;61320;52.008;4.530;2023-05-10T12:33:24;7.81;;;7.81;;
73132;SDS011;61320;52.008;4.530;2023-05-10T12:35:50;7.85;;;7.85;;
73132;SDS011;61320;52.008;4.530;2023-05-10T12:38:24;8.79;;;8.79;;
73132;SDS011;61320;52.008;4.530;2023-05-10T12:40:55;8.97;;;8.97;;
73132;SDS011;61320;52.008;4.530;2023-05-10T12:43:24;9.87;;;9.85;;
73132;SDS011;61320;52.008;4.530;2023-05-10T12:45:50;9.06;;;9.05;;
73132;SDS011;61320;52.008;4.530;2023-05-10T12:48:15;8.97;;;8.97;;
73132;SDS011;61320;52.008;4.530;2023-05-10T12:50:41;9.17;;;9.14;;
73132;SDS011;61320;52.008;4.530;2023-05-10T12:53:06;9.55;;;9.51;;
73132;SDS011;61320;52.008;4.530;2023-05-10T12:55:32;9.34;;;9.23;;
73132;SDS011;61320;52.008;4.530;2023-05-10T12:57:57;8.99;;;8.99;;
73132;SDS011;61320;52.008;4.530;2023-05-10T13:00:23;8.67;;;8.67;;
73132;SDS011;61320;52.008;4.530;2023-05-10T13:02:48;7.77;;;7.77;;
73132;SDS011;61320;52.008;4.530;2023-05-10T13:05:14;7.57;;;7.57;;
73132;SDS011;61320;52.008;4.530;2023-05-10T13:07:39;8.59;;;8.59;;
73132;SDS011;61320;52.008;4.530;2023-05-10T13:10:05;8.65;;;8.65;;
73132;SDS011;61320;52.008;4.530;2023-05-10T13:12:31;8.31;;;8.31;;
73132;SDS011;61320;52.008;4.530;2023-05-10T13:14:57;7.95;;;7.95;;
73132;SDS011;61320;52.008;4.530;2023-05-10T13:17:22;7.52;;;7.52;;
73132;SDS011;61320;52.008;4.530;2023-05-10T13:19:48;7.15;;;7.15;;
73132;SDS011;61320;52.008;4.530;2023-05-10T13:22:13;7.21;;;7.21;;
73132;SDS011;61320;52.008;4.530;2023-05-10T13:24:39;7.62;;;7.62;;
73132;SDS011;61320;52.008;4.530;2023-05-10T13:27:06;7.65;;;7.65;;
73132;SDS011;61320;52.008;4.530;2023-05-10T13:29:31;7.91;;;7.91;;
73132;SDS011;61320;52.008;4.530;2023-05-10T13:31:58;7.74;;;7.74;;
73132;SDS011;61320;52.008;4.530;2023-05-10T13:34:24;7.90;;;7.86;;
73132;SDS011;61320;52.008;4.530;2023-05-10T13:36:50;7.28;;;7.23;;
73132;SDS011;61320;52.008;4.530;2023-05-10T13:39:15;6.95;;;6.94;;
73132;SDS011;61320;52.008;4.530;2023-05-10T13:41:41;7.33;;;7.32;;
73132;SDS011;61320;52.008;4.530;2023-05-10T13:44:07;6.91;;;6.91;;
73132;SDS011;61320;52.008;4.530;2023-05-10T13:46:33;6.59;;;6.59;;
73132;SDS011;61320;52.008;4.530;2023-05-10T13:48:58;5.87;;;5.87;;
73132;SDS011;61320;52.008;4.530;2023-05-10T13:51:24;6.02;;;6.02;;
73132;SDS011;61320;52.008;4.530;2023-05-10T13:53:49;6.07;;;6.07;;
73132;SDS011;61320;52.008;4.530;2023-05-10T13:56:15;6.04;;;6.04;;
73132;SDS011;61320;52.008;4.530;2023-05-10T13:58:40;5.77;;;5.77;;
73132;SDS011;61320;52.008;4.530;2023-05-10T14:01:06;5.71;;;5.71;;
73132;SDS011;61320;52.008;4.530;2023-05-10T14:03:32;5.89;;;5.89;;
73132;SDS011;61320;52.008;4.530;2023-05-10T14:05:57;5.88;;;5.88;;
73132;SDS011;61320;52.008;4.530;2023-05-10T14:08:23;5.60;;;5.60;;
73132;SDS011;61320;52.008;4.530;2023-05-10T14:10:48;5.44;;;5.44;;
73132;SDS011;61320;52.008;4.530;2023-05-10T14:13:14;5.11;;;5.11;;
73132;SDS011;61320;52.008;4.530;2023-05-10T14:15:40;5.19;;;5.19;;
73132;SDS011;61320;52.008;4.530;2023-05-10T14:18:06;5.09;;;5.09;;
73132;SDS011;61320;52.008;4.530;2023-05-10T14:20:31;5.50;;;5.50;;
73132;SDS011;61320;52.008;4.530;2023-05-10T14:22:59;5.04;;;5.04;;
73132;SDS011;61320;52.008;4.530;2023-05-10T14:25:25;5.92;;;5.92;;
73132;SDS011;61320;52.008;4.530;2023-05-10T14:27:50;5.96;;;5.96;;
73132;SDS011;61320;52.008;4.530;2023-05-10T14:30:19;6.37;;;6.37;;
73132;SDS011;61320;52.008;4.530;2023-05-10T14:32:44;7.29;;;7.29;;
73132;SDS011;61320;52.008;4.530;2023-05-10T14:35:10;7.35;;;7.35;;
73132;SDS011;61320;52.008;4.530;2023-05-10T14:37:35;7.58;;;7.58;;
73132;SDS011;61320;52.008;4.530;2023-05-10T14:40:01;7.29;;;7.29;;
73132;SDS011;61320;52.008;4.530;2023-05-10T14:42:29;6.99;;;6.99;;
73132;SDS011;61320;52.008;4.530;2023-05-10T14:44:54;7.22;;;7.20;;
73132;SDS011;61320;52.008;4.530;2023-05-10T14:47:20;6.30;;;6.24;;
73132;SDS011;61320;52.008;4.530;2023-05-10T14:49:45;5.64;;;5.64;;
73132;SDS011;61320;52.008;4.530;2023-05-10T14:52:11;5.50;;;5.50;;
73132;SDS011;61320;52.008;4.530;2023-05-10T14:54:37;5.72;;;5.72;;
73132;SDS011;61320;52.008;4.530;2023-05-10T14:57:03;5.71;;;5.71;;
73132;SDS011;61320;52.008;4.530;2023-05-10T14:59:29;5.72;;;5.72;;
73132;SDS011;61320;52.008;4.530;2023-05-10T15:01:54;5.82;;;5.82;;
73132;SDS011;61320;52.008;4.530;2023-05-10T15:04:20;6.43;;;6.43;;
73132;SDS011;61320;52.008;4.530;2023-05-10T15:06:46;6.89;;;6.89;;
73132;SDS011;61320;52.008;4.530;2023-05-10T15:09:11;6.40;;;6.40;;
73132;SDS011;61320;52.008;4.530;2023-05-10T15:11:37;6.34;;;6.34;;
73132;SDS011;61320;52.008;4.530;2023-05-10T15:14:02;5.68;;;5.68;;
73132;SDS011;61320;52.008;4.530;2023-05-10T15:16:28;5.81;;;5.81;;
73132;SDS011;61320;52.008;4.530;2023-05-10T15:18:53;5.99;;;5.99;;